This is the latest recevied weather packets stored in our database for station/object SP2JGY-2. If no packets are shown the sender has not sent any weather packets the latest 10 day(s).
| Time | Temp. | Humidity | Pressure | Rain* | Wind** | Luminosity | Snow |
|---|---|---|---|---|---|---|---|
| 1777101776 | 7.78° C | 78% | 1008.9 hPa | - | - | - | - |
| 1777100876 | 8.33° C | 79% | 1008.6 hPa | - | - | - | - |
| 1777099976 | 8.33° C | 79% | 1008.5 hPa | - | - | - | - |
| 1777099076 | 8.33° C | 80% | 1008.7 hPa | - | - | - | - |
| 1777098176 | 8.33° C | 82% | 1008.8 hPa | - | - | - | - |
| 1777097276 | 8.33° C | 83% | 1008.7 hPa | - | - | - | - |
| 1777096375 | 8.33° C | 84% | 1008.8 hPa | - | - | - | - |
| 1777095475 | 8.33° C | 84% | 1008.9 hPa | - | - | - | - |
| 1777094575 | 8.33° C | 84% | 1008.8 hPa | - | - | - | - |
| 1777093676 | 8.33° C | 84% | 1008.8 hPa | - | - | - | - |
| 1777092775 | 8.33° C | 84% | 1008.7 hPa | - | - | - | - |
| 1777091875 | 8.33° C | 85% | 1008.9 hPa | - | - | - | - |
| 1777090974 | 8.33° C | 85% | 1009 hPa | - | - | - | - |
| 1777090074 | 7.78° C | 86% | 1009.1 hPa | - | - | - | - |
| 1777089174 | 8.33° C | 86% | 1009 hPa | - | - | - | - |
| 1777088274 | 7.78° C | 87% | 1009.1 hPa | - | - | - | - |
| 1777087374 | 7.78° C | 87% | 1009.3 hPa | - | - | - | - |
| 1777086474 | 7.78° C | 87% | 1009.5 hPa | - | - | - | - |
| 1777085573 | 7.22° C | 88% | 1009.7 hPa | - | - | - | - |
| 1777084673 | 6.11° C | 88% | 1010 hPa | - | - | - | - |
| 1777083773 | 6.11° C | 87% | 1010.1 hPa | - | - | - | - |
| 1777082873 | 5.56° C | 88% | 1010.2 hPa | - | - | - | - |
| 1777081973 | 5.56° C | 88% | 1010.3 hPa | - | - | - | - |
| 1777081073 | 5.56° C | 88% | 1010.5 hPa | - | - | - | - |
| 1777080172 | 5.56° C | 88% | 1010.6 hPa | - | - | - | - |
* Rain since midnight (hover to see other rain measurements)
** Current wind speed in m/s (hover to see current wind gust speed)